sensor_id;sensor_type;location;lat;lon;timestamp;pressure;altitude;pressure_sealevel;temperature;humidity
20612;BME280;10465;42.686;23.364;2022-10-20T00:01:20;95439.66;;;16.55;64.61
20612;BME280;10465;42.686;23.364;2022-10-20T00:03:48;95453.03;;;16.55;65.29
20612;BME280;10465;42.686;23.364;2022-10-20T00:06:15;95437.66;;;16.52;65.63
20612;BME280;10465;42.686;23.364;2022-10-20T00:08:42;95430.38;;;16.41;65.71
20612;BME280;10465;42.686;23.364;2022-10-20T00:11:08;95440.56;;;16.60;65.73
20612;BME280;10465;42.686;23.364;2022-10-20T00:13:35;95419.38;;;16.42;65.75
20612;BME280;10465;42.686;23.364;2022-10-20T00:16:00;95436.09;;;16.51;65.99
20612;BME280;10465;42.686;23.364;2022-10-20T00:18:27;95430.97;;;16.46;66.38
20612;BME280;10465;42.686;23.364;2022-10-20T00:20:53;95443.47;;;16.54;66.07
20612;BME280;10465;42.686;23.364;2022-10-20T00:23:19;95444.25;;;16.55;65.90
20612;BME280;10465;42.686;23.364;2022-10-20T00:25:44;95442.34;;;16.55;65.79
20612;BME280;10465;42.686;23.364;2022-10-20T00:28:10;95444.38;;;16.59;65.50
20612;BME280;10465;42.686;23.364;2022-10-20T00:30:37;95436.00;;;16.60;65.48
20612;BME280;10465;42.686;23.364;2022-10-20T00:33:04;95433.47;;;16.64;64.79
20612;BME280;10465;42.686;23.364;2022-10-20T00:35:31;95431.13;;;16.62;64.31
20612;BME280;10465;42.686;23.364;2022-10-20T00:37:57;95430.66;;;16.60;64.02
20612;BME280;10465;42.686;23.364;2022-10-20T00:40:23;95425.88;;;16.53;63.64
20612;BME280;10465;42.686;23.364;2022-10-20T00:42:48;95426.97;;;16.52;63.46
20612;BME280;10465;42.686;23.364;2022-10-20T00:45:17;95398.38;;;16.32;63.48
20612;BME280;10465;42.686;23.364;2022-10-20T00:47:46;95429.53;;;16.49;63.07
20612;BME280;10465;42.686;23.364;2022-10-20T00:52:52;95409.91;;;16.45;62.24
20612;BME280;10465;42.686;23.364;2022-10-20T00:55:22;95377.03;;;16.11;62.13
20612;BME280;10465;42.686;23.364;2022-10-20T00:57:50;95411.94;;;16.27;62.38
20612;BME280;10465;42.686;23.364;2022-10-20T01:00:16;95399.56;;;16.22;62.04
20612;BME280;10465;42.686;23.364;2022-10-20T01:02:43;95428.16;;;16.43;61.41
20612;BME280;10465;42.686;23.364;2022-10-20T01:05:09;95429.72;;;16.44;61.31
20612;BME280;10465;42.686;23.364;2022-10-20T01:07:34;95427.38;;;16.42;61.23
20612;BME280;10465;42.686;23.364;2022-10-20T01:10:01;95430.19;;;16.46;61.06
20612;BME280;10465;42.686;23.364;2022-10-20T01:12:37;95433.06;;;16.41;60.81
20612;BME280;10465;42.686;23.364;2022-10-20T01:15:23;95429.53;;;16.28;61.50
20612;BME280;10465;42.686;23.364;2022-10-20T01:29:18;95424.06;;;16.24;60.70
20612;BME280;10465;42.686;23.364;2022-10-20T01:34:31;95413.13;;;16.17;60.26
20612;BME280;10465;42.686;23.364;2022-10-20T01:37:36;95415.09;;;16.29;59.85
20612;BME280;10465;42.686;23.364;2022-10-20T01:40:17;95421.84;;;16.26;59.62
20612;BME280;10465;42.686;23.364;2022-10-20T01:42:46;95422.63;;;16.27;59.85
20612;BME280;10465;42.686;23.364;2022-10-20T01:45:16;95419.97;;;16.27;59.63
20612;BME280;10465;42.686;23.364;2022-10-20T01:47:43;95433.06;;;16.20;59.59
20612;BME280;10465;42.686;23.364;2022-10-20T01:50:11;95431.50;;;16.19;59.52
20612;BME280;10465;42.686;23.364;2022-10-20T01:52:39;95419.31;;;16.09;59.83
20612;BME280;10465;42.686;23.364;2022-10-20T01:55:16;95431.91;;;16.09;60.25
20612;BME280;10465;42.686;23.364;2022-10-20T02:00:19;95428.88;;;15.89;60.83
20612;BME280;10465;42.686;23.364;2022-10-20T02:05:35;95444.13;;;15.89;61.03
20612;BME280;10465;42.686;23.364;2022-10-20T02:10:46;95447.34;;;15.73;61.85
20612;BME280;10465;42.686;23.364;2022-10-20T02:13:13;95460.25;;;15.63;62.41
20612;BME280;10465;42.686;23.364;2022-10-20T02:15:44;95446.31;;;15.66;62.20
20612;BME280;10465;42.686;23.364;2022-10-20T02:18:13;95456.22;;;15.56;62.67
20612;BME280;10465;42.686;23.364;2022-10-20T02:20:42;95457.34;;;15.47;63.17
20612;BME280;10465;42.686;23.364;2022-10-20T02:23:08;95458.94;;;15.48;63.16
20612;BME280;10465;42.686;23.364;2022-10-20T02:25:34;95464.56;;;15.46;63.54
20612;BME280;10465;42.686;23.364;2022-10-20T02:28:03;95411.06;;;15.13;63.54
20612;BME280;10465;42.686;23.364;2022-10-20T02:30:30;95454.13;;;15.32;63.54
20612;BME280;10465;42.686;23.364;2022-10-20T02:32:56;95447.72;;;15.25;64.16
20612;BME280;10465;42.686;23.364;2022-10-20T02:35:26;95463.53;;;15.30;64.03
20612;BME280;10465;42.686;23.364;2022-10-20T02:37:53;95456.50;;;15.25;64.27
20612;BME280;10465;42.686;23.364;2022-10-20T02:40:19;95438.19;;;15.06;64.09
20612;BME280;10465;42.686;23.364;2022-10-20T02:42:46;95459.00;;;15.22;64.06
20612;BME280;10465;42.686;23.364;2022-10-20T02:45:12;95478.31;;;15.19;63.98
20612;BME280;10465;42.686;23.364;2022-10-20T02:47:37;95472.69;;;15.20;64.26
20612;BME280;10465;42.686;23.364;2022-10-20T02:50:04;95458.44;;;15.07;64.23
20612;BME280;10465;42.686;23.364;2022-10-20T02:52:30;95479.28;;;15.14;64.69
20612;BME280;10465;42.686;23.364;2022-10-20T02:54:55;95458.31;;;14.95;64.87
20612;BME280;10465;42.686;23.364;2022-10-20T02:57:21;95485.56;;;15.09;64.76
20612;BME280;10465;42.686;23.364;2022-10-20T02:59:46;95479.00;;;15.07;64.80
20612;BME280;10465;42.686;23.364;2022-10-20T03:02:12;95481.81;;;15.02;64.71
20612;BME280;10465;42.686;23.364;2022-10-20T03:04:37;95469.28;;;14.94;64.76
20612;BME280;10465;42.686;23.364;2022-10-20T03:07:03;95465.88;;;14.84;64.44
20612;BME280;10465;42.686;23.364;2022-10-20T03:09:28;95485.13;;;14.90;64.44
20612;BME280;10465;42.686;23.364;2022-10-20T03:11:53;95493.44;;;14.89;64.16
20612;BME280;10465;42.686;23.364;2022-10-20T03:14:19;95457.13;;;14.67;64.48
20612;BME280;10465;42.686;23.364;2022-10-20T03:16:44;95463.41;;;14.71;64.40
20612;BME280;10465;42.686;23.364;2022-10-20T03:19:10;95489.25;;;14.79;64.76
20612;BME280;10465;42.686;23.364;2022-10-20T03:21:35;95485.78;;;14.78;64.88
20612;BME280;10465;42.686;23.364;2022-10-20T03:24:01;95491.09;;;14.78;64.87
20612;BME280;10465;42.686;23.364;2022-10-20T03:26:26;95467.31;;;14.56;64.66
20612;BME280;10465;42.686;23.364;2022-10-20T03:28:52;95493.00;;;14.78;64.55
20612;BME280;10465;42.686;23.364;2022-10-20T03:31:17;95502.41;;;14.75;64.94
20612;BME280;10465;42.686;23.364;2022-10-20T03:33:43;95495.97;;;14.76;64.86
20612;BME280;10465;42.686;23.364;2022-10-20T03:36:08;95486.91;;;14.69;64.75
20612;BME280;10465;42.686;23.364;2022-10-20T03:38:34;95475.75;;;14.58;65.30
20612;BME280;10465;42.686;23.364;2022-10-20T03:40:59;95501.00;;;14.69;64.93
20612;BME280;10465;42.686;23.364;2022-10-20T03:43:25;95503.06;;;14.64;65.33
20612;BME280;10465;42.686;23.364;2022-10-20T03:46:00;95495.53;;;14.57;65.49
20612;BME280;10465;42.686;23.364;2022-10-20T03:48:26;95509.00;;;14.61;65.63
20612;BME280;10465;42.686;23.364;2022-10-20T03:50:52;95507.59;;;14.63;65.80
20612;BME280;10465;42.686;23.364;2022-10-20T03:53:17;95513.56;;;14.60;66.07
20612;BME280;10465;42.686;23.364;2022-10-20T03:55:42;95509.50;;;14.63;66.10
20612;BME280;10465;42.686;23.364;2022-10-20T03:58:08;95509.78;;;14.61;66.05
20612;BME280;10465;42.686;23.364;2022-10-20T04:00:34;95521.06;;;14.58;66.19
20612;BME280;10465;42.686;23.364;2022-10-20T04:02:59;95510.88;;;14.51;66.38
20612;BME280;10465;42.686;23.364;2022-10-20T04:05:24;95499.88;;;14.44;66.44
20612;BME280;10465;42.686;23.364;2022-10-20T04:07:50;95475.28;;;14.30;66.24
20612;BME280;10465;42.686;23.364;2022-10-20T04:10:16;95516.50;;;14.50;66.49
20612;BME280;10465;42.686;23.364;2022-10-20T04:12:42;95513.56;;;14.51;66.55
20612;BME280;10465;42.686;23.364;2022-10-20T04:15:08;95517.63;;;14.49;66.30
20612;BME280;10465;42.686;23.364;2022-10-20T04:17:34;95518.69;;;14.48;66.20
20612;BME280;10465;42.686;23.364;2022-10-20T04:20:01;95494.06;;;14.33;66.18
20612;BME280;10465;42.686;23.364;2022-10-20T04:22:27;95508.50;;;14.32;66.62
20612;BME280;10465;42.686;23.364;2022-10-20T04:24:52;95514.31;;;14.43;66.68
20612;BME280;10465;42.686;23.364;2022-10-20T04:27:17;95515.88;;;14.44;66.46
20612;BME280;10465;42.686;23.364;2022-10-20T04:29:43;95527.00;;;14.46;66.68
20612;BME280;10465;42.686;23.364;2022-10-20T04:32:08;95518.84;;;14.43;66.69
20612;BME280;10465;42.686;23.364;2022-10-20T04:34:34;95522.13;;;14.40;66.56
20612;BME280;10465;42.686;23.364;2022-10-20T04:37:00;95521.03;;;14.41;66.88
20612;BME280;10465;42.686;23.364;2022-10-20T04:39:26;95508.66;;;14.27;67.22
20612;BME280;10465;42.686;23.364;2022-10-20T04:41:51;95528.56;;;14.39;66.97
20612;BME280;10465;42.686;23.364;2022-10-20T04:44:17;95515.69;;;14.23;67.18
20612;BME280;10465;42.686;23.364;2022-10-20T04:46:42;95502.06;;;14.16;67.18
20612;BME280;10465;42.686;23.364;2022-10-20T04:49:08;95529.03;;;14.32;67.47
20612;BME280;10465;42.686;23.364;2022-10-20T04:51:34;95526.81;;;14.25;67.28
20612;BME280;10465;42.686;23.364;2022-10-20T04:53:59;95474.47;;;13.95;67.30
20612;BME280;10465;42.686;23.364;2022-10-20T04:56:25;95536.69;;;14.33;67.38
20612;BME280;10465;42.686;23.364;2022-10-20T04:58:55;95532.13;;;14.34;67.31
20612;BME280;10465;42.686;23.364;2022-10-20T05:01:24;95545.00;;;14.32;67.65
20612;BME280;10465;42.686;23.364;2022-10-20T05:03:50;95537.00;;;14.23;67.77
20612;BME280;10465;42.686;23.364;2022-10-20T05:06:24;95543.44;;;14.22;67.97
20612;BME280;10465;42.686;23.364;2022-10-20T05:08:52;95526.47;;;14.09;67.62
20612;BME280;10465;42.686;23.364;2022-10-20T05:11:20;95547.34;;;14.25;67.79
20612;BME280;10465;42.686;23.364;2022-10-20T05:13:46;95556.88;;;14.26;67.88
20612;BME280;10465;42.686;23.364;2022-10-20T05:16:12;95557.69;;;14.26;67.80
20612;BME280;10465;42.686;23.364;2022-10-20T05:18:38;95550.31;;;14.32;67.86
20612;BME280;10465;42.686;23.364;2022-10-20T05:21:09;95559.59;;;14.34;67.69
20612;BME280;10465;42.686;23.364;2022-10-20T05:23:37;95549.69;;;14.26;67.37
20612;BME280;10465;42.686;23.364;2022-10-20T05:26:09;95570.84;;;14.40;67.33
20612;BME280;10465;42.686;23.364;2022-10-20T05:28:35;95567.75;;;14.38;67.65
20612;BME280;10465;42.686;23.364;2022-10-20T05:31:05;95564.91;;;14.34;67.68
20612;BME280;10465;42.686;23.364;2022-10-20T05:33:30;95524.72;;;13.96;67.82
20612;BME280;10465;42.686;23.364;2022-10-20T05:35:56;95577.13;;;14.35;67.78
20612;BME280;10465;42.686;23.364;2022-10-20T05:38:21;95589.66;;;14.44;67.36
20612;BME280;10465;42.686;23.364;2022-10-20T05:40:47;95576.97;;;14.32;67.18
20612;BME280;10465;42.686;23.364;2022-10-20T05:43:12;95571.47;;;14.28;67.29
20612;BME280;10465;42.686;23.364;2022-10-20T05:45:38;95602.88;;;14.49;67.44
20612;BME280;10465;42.686;23.364;2022-10-20T05:48:05;95616.03;;;14.54;67.17
20612;BME280;10465;42.686;23.364;2022-10-20T05:50:30;95615.25;;;14.53;67.28
20612;BME280;10465;42.686;23.364;2022-10-20T05:52:56;95629.69;;;14.52;67.25
20612;BME280;10465;42.686;23.364;2022-10-20T05:55:22;95623.25;;;14.53;66.96
20612;BME280;10465;42.686;23.364;2022-10-20T05:57:49;95638.28;;;14.58;67.18
20612;BME280;10465;42.686;23.364;2022-10-20T06:00:15;95631.41;;;14.57;67.10
20612;BME280;10465;42.686;23.364;2022-10-20T06:02:41;95639.25;;;14.62;66.87
20612;BME280;10465;42.686;23.364;2022-10-20T06:05:07;95642.72;;;14.63;67.02
20612;BME280;10465;42.686;23.364;2022-10-20T06:07:32;95648.34;;;14.61;66.93
20612;BME280;10465;42.686;23.364;2022-10-20T06:09:58;95666.69;;;14.63;67.35
20612;BME280;10465;42.686;23.364;2022-10-20T06:12:23;95641.22;;;14.48;67.65
20612;BME280;10465;42.686;23.364;2022-10-20T06:14:49;95634.34;;;14.47;67.56
20612;BME280;10465;42.686;23.364;2022-10-20T06:17:14;95671.09;;;14.67;67.38
20612;BME280;10465;42.686;23.364;2022-10-20T06:19:39;95664.81;;;14.72;67.71
20612;BME280;10465;42.686;23.364;2022-10-20T06:22:05;95673.75;;;14.67;67.67
20612;BME280;10465;42.686;23.364;2022-10-20T06:24:30;95664.81;;;14.72;68.17
20612;BME280;10465;42.686;23.364;2022-10-20T06:26:56;95651.16;;;14.56;68.21
20612;BME280;10465;42.686;23.364;2022-10-20T06:29:21;95675.00;;;14.70;68.04
20612;BME280;10465;42.686;23.364;2022-10-20T06:31:49;95670.94;;;14.72;68.19
20612;BME280;10465;42.686;23.364;2022-10-20T06:34:17;95681.59;;;14.72;68.65
20612;BME280;10465;42.686;23.364;2022-10-20T06:36:43;95674.88;;;14.75;68.86
20612;BME280;10465;42.686;23.364;2022-10-20T06:39:12;95689.75;;;14.76;68.79
20612;BME280;10465;42.686;23.364;2022-10-20T06:41:38;95675.31;;;14.77;68.42
20612;BME280;10465;42.686;23.364;2022-10-20T06:44:04;95670.16;;;14.80;68.71
20612;BME280;10465;42.686;23.364;2022-10-20T06:46:31;95685.53;;;14.92;68.51
20612;BME280;10465;42.686;23.364;2022-10-20T06:49:07;95685.06;;;14.99;68.52
20612;BME280;10465;42.686;23.364;2022-10-20T06:51:34;95692.78;;;15.09;68.49
20612;BME280;10465;42.686;23.364;2022-10-20T06:54:00;95693.72;;;15.22;67.88
20612;BME280;10465;42.686;23.364;2022-10-20T06:56:28;95669.25;;;15.11;67.81
20612;BME280;10465;42.686;23.364;2022-10-20T06:58:55;95697.66;;;15.33;67.37
20612;BME280;10465;42.686;23.364;2022-10-20T07:01:26;95697.03;;;15.27;66.89
20612;BME280;10465;42.686;23.364;2022-10-20T07:03:54;95691.03;;;14.96;67.73
20612;BME280;10465;42.686;23.364;2022-10-20T07:06:46;95703.13;;;15.02;68.15
20612;BME280;10465;42.686;23.364;2022-10-20T07:09:17;95707.84;;;15.22;67.80
20612;BME280;10465;42.686;23.364;2022-10-20T07:11:43;95706.44;;;15.33;67.13
20612;BME280;10465;42.686;23.364;2022-10-20T07:14:11;95696.69;;;15.38;66.80
20612;BME280;10465;42.686;23.364;2022-10-20T07:16:37;95709.72;;;15.48;66.37
20612;BME280;10465;42.686;23.364;2022-10-20T07:19:03;95707.34;;;15.55;65.71
20612;BME280;10465;42.686;23.364;2022-10-20T07:21:29;95686.81;;;15.38;65.24
20612;BME280;10465;42.686;23.364;2022-10-20T07:23:55;95694.97;;;15.42;65.35
20612;BME280;10465;42.686;23.364;2022-10-20T07:26:26;95696.22;;;15.44;65.36
20612;BME280;10465;42.686;23.364;2022-10-20T07:28:55;95701.72;;;15.56;64.64
20612;BME280;10465;42.686;23.364;2022-10-20T07:31:26;95706.41;;;15.59;64.29
20612;BME280;10465;42.686;23.364;2022-10-20T07:33:51;95708.00;;;15.69;64.33
20612;BME280;10465;42.686;23.364;2022-10-20T07:36:20;95701.25;;;15.80;64.23
20612;BME280;10465;42.686;23.364;2022-10-20T07:38:46;95705.72;;;16.06;62.89
20612;BME280;10465;42.686;23.364;2022-10-20T07:41:12;95695.19;;;16.10;62.15
20612;BME280;10465;42.686;23.364;2022-10-20T07:43:38;95704.34;;;16.38;61.48
20612;BME280;10465;42.686;23.364;2022-10-20T07:46:05;95684.88;;;16.38;60.46
20612;BME280;10465;42.686;23.364;2022-10-20T07:48:31;95678.41;;;16.39;60.53
20612;BME280;10465;42.686;23.364;2022-10-20T07:53:47;95691.97;;;16.63;60.25
20612;BME280;10465;42.686;23.364;2022-10-20T07:56:14;95682.97;;;16.68;59.64
20612;BME280;10465;42.686;23.364;2022-10-20T07:58:40;95688.47;;;16.71;59.35
20612;BME280;10465;42.686;23.364;2022-10-20T08:01:06;95697.84;;;16.86;58.52
20612;BME280;10465;42.686;23.364;2022-10-20T08:03:32;95673.97;;;16.81;58.29
20612;BME280;10465;42.686;23.364;2022-10-20T08:05:58;95691.81;;;16.98;58.22
20612;BME280;10465;42.686;23.364;2022-10-20T08:08:23;95679.47;;;17.05;57.02
20612;BME280;10465;42.686;23.364;2022-10-20T08:10:49;95711.59;;;17.26;56.11
20612;BME280;10465;42.686;23.364;2022-10-20T08:13:14;95694.66;;;17.55;55.12
20612;BME280;10465;42.686;23.364;2022-10-20T08:15:40;95692.78;;;17.68;54.86
20612;BME280;10465;42.686;23.364;2022-10-20T08:18:05;95696.88;;;17.74;55.01
20612;BME280;10465;42.686;23.364;2022-10-20T08:20:31;95679.41;;;17.68;54.02
20612;BME280;10465;42.686;23.364;2022-10-20T08:22:57;95696.91;;;17.87;53.41
20612;BME280;10465;42.686;23.364;2022-10-20T08:25:22;95687.94;;;18.16;52.92
20612;BME280;10465;42.686;23.364;2022-10-20T08:27:48;95679.78;;;18.37;51.57
20612;BME280;10465;42.686;23.364;2022-10-20T08:30:13;95700.22;;;18.41;51.50
20612;BME280;10465;42.686;23.364;2022-10-20T08:32:39;95684.50;;;18.52;51.44
20612;BME280;10465;42.686;23.364;2022-10-20T08:35:04;95682.25;;;18.42;49.83
20612;BME280;10465;42.686;23.364;2022-10-20T08:37:30;95675.34;;;18.53;49.84
20612;BME280;10465;42.686;23.364;2022-10-20T08:39:56;95680.16;;;18.72;48.83
20612;BME280;10465;42.686;23.364;2022-10-20T08:42:22;95662.16;;;18.85;48.37
20612;BME280;10465;42.686;23.364;2022-10-20T08:44:48;95673.63;;;18.97;47.76
20612;BME280;10465;42.686;23.364;2022-10-20T08:49:50;95654.94;;;19.41;46.12
20612;BME280;10465;42.686;23.364;2022-10-20T08:52:17;95659.47;;;19.65;44.64
20612;BME280;10465;42.686;23.364;2022-10-20T08:54:43;95656.66;;;19.90;44.10
20612;BME280;10465;42.686;23.364;2022-10-20T08:57:21;95674.44;;;20.10;43.24
20612;BME280;10465;42.686;23.364;2022-10-20T08:59:53;95681.88;;;20.33;42.90
20612;BME280;10465;42.686;23.364;2022-10-20T09:02:19;95664.19;;;20.32;43.20
20612;BME280;10465;42.686;23.364;2022-10-20T09:04:53;95680.84;;;20.37;41.57
20612;BME280;10465;42.686;23.364;2022-10-20T09:07:28;95673.13;;;20.36;41.91
20612;BME280;10465;42.686;23.364;2022-10-20T09:10:06;95654.22;;;20.16;41.86
20612;BME280;10465;42.686;23.364;2022-10-20T09:12:36;95680.94;;;20.41;41.77
20612;BME280;10465;42.686;23.364;2022-10-20T09:15:04;95657.44;;;20.38;40.34
20612;BME280;10465;42.686;23.364;2022-10-20T09:17:30;95659.97;;;20.46;39.90
20612;BME280;10465;42.686;23.364;2022-10-20T09:19:57;95673.91;;;20.68;39.00
20612;BME280;10465;42.686;23.364;2022-10-20T09:22:25;95684.75;;;20.87;38.75
20612;BME280;10465;42.686;23.364;2022-10-20T09:24:54;95683.94;;;21.03;38.26
20612;BME280;10465;42.686;23.364;2022-10-20T09:27:29;95682.16;;;21.30;38.17
20612;BME280;10465;42.686;23.364;2022-10-20T09:29:55;95695.03;;;21.36;37.16
20612;BME280;10465;42.686;23.364;2022-10-20T09:32:33;95689.16;;;21.50;36.30
20612;BME280;10465;42.686;23.364;2022-10-20T09:35:26;95674.06;;;21.65;35.95
20612;BME280;10465;42.686;23.364;2022-10-20T09:37:57;95681.44;;;21.68;35.96
20612;BME280;10465;42.686;23.364;2022-10-20T09:40:26;95671.59;;;21.56;36.29
20612;BME280;10465;42.686;23.364;2022-10-20T09:42:58;95694.38;;;21.43;35.81
20612;BME280;10465;42.686;23.364;2022-10-20T09:45:27;95682.06;;;21.81;34.94
20612;BME280;10465;42.686;23.364;2022-10-20T09:47:58;95680.34;;;21.72;35.02
20612;BME280;10465;42.686;23.364;2022-10-20T09:50:36;95677.59;;;21.69;35.19
20612;BME280;10465;42.686;23.364;2022-10-20T09:53:06;95660.19;;;21.86;34.85
20612;BME280;10465;42.686;23.364;2022-10-20T09:55:45;95650.56;;;22.08;34.06
20612;BME280;10465;42.686;23.364;2022-10-20T09:58:20;95666.31;;;22.06;34.13
20612;BME280;10465;42.686;23.364;2022-10-20T10:00:55;95667.19;;;21.90;34.13
20612;BME280;10465;42.686;23.364;2022-10-20T10:03:22;95663.53;;;21.79;34.17
20612;BME280;10465;42.686;23.364;2022-10-20T10:05:55;95673.63;;;22.05;33.81
20612;BME280;10465;42.686;23.364;2022-10-20T10:08:24;95669.66;;;22.18;33.61
20612;BME280;10465;42.686;23.364;2022-10-20T10:11:17;95663.03;;;22.39;32.84
20612;BME280;10465;42.686;23.364;2022-10-20T10:13:48;95654.94;;;22.62;32.71
20612;BME280;10465;42.686;23.364;2022-10-20T10:16:23;95653.13;;;22.69;32.42
20612;BME280;10465;42.686;23.364;2022-10-20T10:19:02;95661.28;;;22.50;32.81
20612;BME280;10465;42.686;23.364;2022-10-20T10:21:29;95653.88;;;22.70;32.05
20612;BME280;10465;42.686;23.364;2022-10-20T10:26:52;95642.28;;;22.92;31.35
20612;BME280;10465;42.686;23.364;2022-10-20T10:29:29;95650.09;;;22.75;31.76
20612;BME280;10465;42.686;23.364;2022-10-20T10:37:04;95635.63;;;23.47;30.97
20612;BME280;10465;42.686;23.364;2022-10-20T10:39:32;95637.88;;;23.75;30.54
20612;BME280;10465;42.686;23.364;2022-10-20T10:42:30;95626.84;;;23.57;30.15
20612;BME280;10465;42.686;23.364;2022-10-20T10:47:55;95640.97;;;23.09;30.59
20612;BME280;10465;42.686;23.364;2022-10-20T10:50:47;95631.00;;;23.13;30.56
20612;BME280;10465;42.686;23.364;2022-10-20T10:56:02;95629.25;;;23.62;30.10
20612;BME280;10465;42.686;23.364;2022-10-20T11:01:16;95615.22;;;23.53;30.12
20612;BME280;10465;42.686;23.364;2022-10-20T11:09:24;95602.03;;;23.81;28.68
20612;BME280;10465;42.686;23.364;2022-10-20T11:20:58;95592.97;;;24.04;28.98
20612;BME280;10465;42.686;23.364;2022-10-20T11:26:32;95607.38;;;23.78;29.48
20612;BME280;10465;42.686;23.364;2022-10-20T11:28:59;95595.94;;;23.91;29.41
20612;BME280;10465;42.686;23.364;2022-10-20T11:31:30;95587.88;;;23.95;29.15
20612;BME280;10465;42.686;23.364;2022-10-20T11:39:46;95580.13;;;24.41;27.99
20612;BME280;10465;42.686;23.364;2022-10-20T11:42:34;95580.94;;;24.46;28.13
20612;BME280;10465;42.686;23.364;2022-10-20T11:45:08;95581.44;;;24.65;27.97
20612;BME280;10465;42.686;23.364;2022-10-20T11:47:38;95574.72;;;24.41;28.01
20612;BME280;10465;42.686;23.364;2022-10-20T11:50:08;95556.53;;;24.38;27.33
20612;BME280;10465;42.686;23.364;2022-10-20T12:06:34;95532.38;;;24.78;26.95
20612;BME280;10465;42.686;23.364;2022-10-20T12:09:23;95567.31;;;25.01;27.26
20612;BME280;10465;42.686;23.364;2022-10-20T12:12:04;95560.69;;;24.87;27.54
20612;BME280;10465;42.686;23.364;2022-10-20T12:14:39;95571.75;;;24.61;27.91
20612;BME280;10465;42.686;23.364;2022-10-20T12:17:28;95556.63;;;24.53;27.96
20612;BME280;10465;42.686;23.364;2022-10-20T12:22:47;95559.28;;;24.46;27.63
20612;BME280;10465;42.686;23.364;2022-10-20T12:31:04;95552.63;;;24.36;27.27
20612;BME280;10465;42.686;23.364;2022-10-20T12:34:19;95551.44;;;24.33;27.29
20612;BME280;10465;42.686;23.364;2022-10-20T12:36:35;95533.97;;;24.20;27.09
20612;BME280;10465;42.686;23.364;2022-10-20T12:39:20;95554.50;;;23.80;27.63
20612;BME280;10465;42.686;23.364;2022-10-20T12:44:21;95527.31;;;23.25;28.41
20612;BME280;10465;42.686;23.364;2022-10-20T12:47:05;95551.28;;;23.27;28.80
20612;BME280;10465;42.686;23.364;2022-10-20T12:49:37;95534.03;;;23.05;28.76
20612;BME280;10465;42.686;23.364;2022-10-20T12:52:06;95549.06;;;23.02;29.12
20612;BME280;10465;42.686;23.364;2022-10-20T12:54:36;95548.78;;;23.11;28.99
20612;BME280;10465;42.686;23.364;2022-10-20T12:57:40;95539.34;;;23.31;28.40
20612;BME280;10465;42.686;23.364;2022-10-20T13:02:52;95559.19;;;23.83;27.80
20612;BME280;10465;42.686;23.364;2022-10-20T13:12:54;95539.09;;;23.84;26.83
20612;BME280;10465;42.686;23.364;2022-10-20T13:15:49;95552.22;;;23.45;27.50
20612;BME280;10465;42.686;23.364;2022-10-20T13:18:27;95558.41;;;23.45;28.00
20612;BME280;10465;42.686;23.364;2022-10-20T13:23:38;95544.53;;;23.88;27.15
20612;BME280;10465;42.686;23.364;2022-10-20T13:26:21;95549.72;;;23.63;27.55
20612;BME280;10465;42.686;23.364;2022-10-20T13:28:49;95548.84;;;23.55;27.58
20612;BME280;10465;42.686;23.364;2022-10-20T13:31:25;95554.88;;;23.41;27.67
20612;BME280;10465;42.686;23.364;2022-10-20T13:34:15;95556.03;;;23.74;27.23
20612;BME280;10465;42.686;23.364;2022-10-20T13:50:22;95549.25;;;23.54;28.05
20612;BME280;10465;42.686;23.364;2022-10-20T13:53:12;95552.81;;;23.65;27.89
20612;BME280;10465;42.686;23.364;2022-10-20T13:58:23;95551.78;;;23.77;27.33
20612;BME280;10465;42.686;23.364;2022-10-20T14:01:00;95553.03;;;23.86;27.12
20612;BME280;10465;42.686;23.364;2022-10-20T14:03:27;95556.06;;;23.81;27.06
20612;BME280;10465;42.686;23.364;2022-10-20T14:05:53;95557.25;;;23.84;26.80
20612;BME280;10465;42.686;23.364;2022-10-20T14:08:19;95540.53;;;23.71;27.12
20612;BME280;10465;42.686;23.364;2022-10-20T14:11:03;95555.94;;;23.67;27.08
20612;BME280;10465;42.686;23.364;2022-10-20T14:13:33;95551.09;;;23.46;27.63
20612;BME280;10465;42.686;23.364;2022-10-20T14:16:03;95557.28;;;23.47;27.71
20612;BME280;10465;42.686;23.364;2022-10-20T14:18:34;95557.34;;;23.57;27.64
20612;BME280;10465;42.686;23.364;2022-10-20T14:21:14;95559.03;;;23.69;27.14
20612;BME280;10465;42.686;23.364;2022-10-20T14:23:41;95548.13;;;23.58;27.12
20612;BME280;10465;42.686;23.364;2022-10-20T14:26:15;95559.28;;;23.57;27.34
20612;BME280;10465;42.686;23.364;2022-10-20T14:28:42;95557.69;;;23.52;27.24
20612;BME280;10465;42.686;23.364;2022-10-20T14:31:12;95543.38;;;23.48;27.70
20612;BME280;10465;42.686;23.364;2022-10-20T14:33:45;95547.53;;;23.38;27.35
20612;BME280;10465;42.686;23.364;2022-10-20T14:36:21;95557.75;;;23.18;27.66
20612;BME280;10465;42.686;23.364;2022-10-20T14:38:48;95559.97;;;23.09;28.02
20612;BME280;10465;42.686;23.364;2022-10-20T14:41:33;95534.97;;;22.86;28.00
20612;BME280;10465;42.686;23.364;2022-10-20T14:44:02;95535.88;;;22.67;28.29
20612;BME280;10465;42.686;23.364;2022-10-20T14:46:43;95528.38;;;22.53;28.51
20612;BME280;10465;42.686;23.364;2022-10-20T14:49:14;95559.94;;;22.79;28.57
20612;BME280;10465;42.686;23.364;2022-10-20T14:51:56;95552.34;;;22.58;28.93
20612;BME280;10465;42.686;23.364;2022-10-20T14:57:01;95561.38;;;22.16;29.68
20612;BME280;10465;42.686;23.364;2022-10-20T15:02:37;95558.84;;;21.35;31.06
20612;BME280;10465;42.686;23.364;2022-10-20T15:07:50;95548.91;;;20.81;32.28
20612;BME280;10465;42.686;23.364;2022-10-20T15:10:20;95556.09;;;20.58;32.53
20612;BME280;10465;42.686;23.364;2022-10-20T15:12:47;95568.44;;;20.43;33.12
20612;BME280;10465;42.686;23.364;2022-10-20T15:15:26;95562.03;;;20.32;33.53